createdAt,value
2017-06-08T00:03:49.195Z,99.99
2017-06-08T00:04:29.735Z,99.99
2017-06-08T00:05:10.276Z,99.99
2017-06-08T00:05:50.815Z,99.99
2017-06-08T00:06:31.355Z,99.99
2017-06-08T00:07:11.889Z,99.99
2017-06-08T00:07:52.427Z,99.99
2017-06-08T00:08:32.972Z,99.99
2017-06-08T00:09:13.505Z,99.99
2017-06-08T00:09:54.046Z,99.99
2017-06-08T00:10:34.587Z,99.99
2017-06-08T00:11:15.130Z,99.99
2017-06-08T00:11:55.676Z,99.99
2017-06-08T00:12:36.218Z,99.99
2017-06-08T00:13:16.761Z,99.99
2017-06-08T00:13:57.292Z,99.99
2017-06-08T00:14:37.833Z,99.99
2017-06-08T00:15:18.372Z,99.99
2017-06-08T00:15:58.923Z,99.99
2017-06-08T00:16:39.445Z,99.99
2017-06-08T00:17:19.984Z,99.99
2017-06-08T00:18:00.533Z,99.99
2017-06-08T00:18:41.073Z,99.99
2017-06-08T00:19:21.616Z,99.99
2017-06-08T00:20:02.158Z,99.99
2017-06-08T00:20:42.701Z,99.99
2017-06-08T00:21:23.238Z,99.99
2017-06-08T00:22:03.781Z,99.99
2017-06-08T00:22:44.316Z,99.99
2017-06-08T00:23:24.864Z,99.99
2017-06-08T00:24:05.407Z,99.99
2017-06-08T00:24:45.949Z,99.99
2017-06-08T00:25:26.493Z,99.99
2017-06-08T00:26:07.034Z,99.99
2017-06-08T00:26:47.585Z,99.99
2017-06-08T00:27:28.133Z,99.99
2017-06-08T00:28:08.676Z,99.99
2017-06-08T00:28:49.221Z,99.99
2017-06-08T00:29:29.761Z,99.99
2017-06-08T00:30:10.371Z,99.99
2017-06-08T00:30:50.911Z,99.99
2017-06-08T00:31:31.455Z,99.99
2017-06-08T00:32:12.001Z,99.99
2017-06-08T00:32:52.543Z,99.99
2017-06-08T00:33:33.085Z,99.99
2017-06-08T00:34:13.624Z,99.99
2017-06-08T00:34:54.166Z,99.99
2017-06-08T00:35:34.693Z,99.99
2017-06-08T00:36:15.238Z,99.99
2017-06-08T00:36:55.782Z,99.99
2017-06-08T00:37:36.322Z,99.99
2017-06-08T00:38:16.869Z,99.99
2017-06-08T00:38:57.420Z,99.99
2017-06-08T00:39:37.972Z,99.99
2017-06-08T00:40:18.525Z,99.99
2017-06-08T00:40:59.074Z,99.99
2017-06-08T00:41:39.626Z,99.99
2017-06-08T00:42:20.173Z,99.99
2017-06-08T00:43:00.732Z,99.99
2017-06-08T00:43:41.278Z,99.99
2017-06-08T00:44:21.818Z,99.99
2017-06-08T00:45:02.369Z,99.99
2017-06-08T00:45:42.935Z,99.99
2017-06-08T00:46:23.481Z,99.99
2017-06-08T00:47:04.025Z,99.99
2017-06-08T00:47:44.570Z,99.99
2017-06-08T00:48:25.103Z,99.99
2017-06-08T00:49:05.664Z,99.99
2017-06-08T00:49:46.178Z,99.99
2017-06-08T00:50:26.709Z,99.99
2017-06-08T00:51:07.257Z,99.99
2017-06-08T00:51:47.788Z,99.99
2017-06-08T00:52:28.329Z,99.99
2017-06-08T00:53:08.873Z,99.99
2017-06-08T00:53:49.424Z,99.99
2017-06-08T00:54:29.960Z,99.99
2017-06-08T00:55:10.502Z,99.99
2017-06-08T00:55:51.036Z,99.99
2017-06-08T00:56:31.573Z,99.99
2017-06-08T00:57:12.121Z,99.99
2017-06-08T00:57:52.656Z,99.99
2017-06-08T00:58:33.204Z,99.99
2017-06-08T00:59:13.743Z,99.99
2017-06-08T00:59:54.298Z,99.99
2017-06-08T01:00:34.840Z,99.99
2017-06-08T01:01:15.385Z,99.99
2017-06-08T01:01:55.928Z,99.99
2017-06-08T01:02:36.460Z,99.99
2017-06-08T01:03:16.997Z,99.99
2017-06-08T01:03:57.541Z,99.99
2017-06-08T01:04:38.075Z,99.99
2017-06-08T01:05:18.622Z,99.99
2017-06-08T01:05:59.173Z,99.99
2017-06-08T01:06:39.722Z,99.99
2017-06-08T01:07:20.254Z,99.99
2017-06-08T01:08:00.819Z,99.99
2017-06-08T01:08:41.332Z,99.99
2017-06-08T01:09:21.881Z,99.99
2017-06-08T01:10:02.426Z,99.99
2017-06-08T01:10:42.977Z,99.99
2017-06-08T01:11:23.521Z,99.99
2017-06-08T01:12:04.070Z,99.99
2017-06-08T01:12:44.616Z,99.99
2017-06-08T01:13:25.161Z,99.99
2017-06-08T01:14:05.710Z,99.99
2017-06-08T01:14:46.247Z,99.99
2017-06-08T01:15:26.785Z,99.99
2017-06-08T01:16:07.328Z,99.99
2017-06-08T01:16:47.867Z,99.99
2017-06-08T01:17:28.408Z,99.99
2017-06-08T01:18:08.939Z,99.99
2017-06-08T01:18:49.494Z,99.99
2017-06-08T01:19:30.015Z,99.99
2017-06-08T01:20:10.565Z,99.99
2017-06-08T01:20:51.114Z,99.99
2017-06-08T01:21:31.650Z,99.99
2017-06-08T01:22:12.166Z,99.99
2017-06-08T01:22:52.702Z,99.99
2017-06-08T01:23:33.241Z,99.99
2017-06-08T01:24:13.788Z,99.99
2017-06-08T01:24:54.319Z,99.99
2017-06-08T01:25:34.850Z,99.99
2017-06-08T01:26:15.400Z,99.99
2017-06-08T01:26:55.943Z,99.99
2017-06-08T01:27:36.483Z,99.99
2017-06-08T01:28:17.020Z,99.99
2017-06-08T01:28:57.570Z,99.99
2017-06-08T01:29:38.116Z,99.99
2017-06-08T01:30:18.666Z,99.99
2017-06-08T01:30:59.211Z,99.99
2017-06-08T01:31:39.753Z,99.99
2017-06-08T01:32:20.297Z,99.99
2017-06-08T01:33:00.836Z,99.99
2017-06-08T01:33:41.377Z,99.99
2017-06-08T01:34:21.919Z,99.99
2017-06-08T01:35:02.454Z,99.99
2017-06-08T01:35:43.005Z,99.99
2017-06-08T01:36:23.556Z,99.99
2017-06-08T01:37:04.094Z,99.99
2017-06-08T01:37:44.627Z,99.99
2017-06-08T01:38:25.180Z,99.99
2017-06-08T01:39:05.723Z,99.99
2017-06-08T01:39:46.301Z,99.99
2017-06-08T01:40:26.847Z,99.99
2017-06-08T01:41:07.377Z,99.99
2017-06-08T01:41:47.924Z,99.99
2017-06-08T01:42:28.471Z,99.99
2017-06-08T01:43:09.025Z,99.99
2017-06-08T01:43:49.559Z,99.99
2017-06-08T01:44:30.110Z,99.99
2017-06-08T01:45:10.660Z,99.99
2017-06-08T01:45:51.193Z,99.99
2017-06-08T01:46:31.738Z,99.99
2017-06-08T01:47:12.308Z,99.99
2017-06-08T01:47:52.846Z,99.99
2017-06-08T01:48:33.397Z,99.99
2017-06-08T01:49:13.944Z,99.99
2017-06-08T01:49:54.481Z,99.99
2017-06-08T01:50:35.039Z,99.99
2017-06-08T01:51:15.569Z,99.99
2017-06-08T01:51:56.111Z,99.99
2017-06-08T01:52:36.649Z,99.99
2017-06-08T01:53:17.202Z,99.99
2017-06-08T01:53:57.736Z,99.99
2017-06-08T01:54:38.282Z,99.99
2017-06-08T01:55:18.807Z,99.99
2017-06-08T01:55:59.330Z,99.99
2017-06-08T01:56:39.876Z,99.99
2017-06-08T01:57:20.412Z,99.99
2017-06-08T01:58:00.956Z,99.99
2017-06-08T01:58:41.497Z,99.99
2017-06-08T01:59:22.045Z,99.99
2017-06-08T02:00:02.592Z,99.99
2017-06-08T02:00:43.136Z,99.99
2017-06-08T02:01:23.668Z,99.99
2017-06-08T02:02:04.209Z,99.99
2017-06-08T02:02:44.737Z,99.99
2017-06-08T02:03:25.274Z,99.99
2017-06-08T02:04:05.813Z,99.99
2017-06-08T02:04:46.360Z,99.99
2017-06-08T02:05:26.902Z,99.99
2017-06-08T02:06:07.446Z,99.99
2017-06-08T02:06:47.998Z,99.99
2017-06-08T02:07:28.539Z,99.99
2017-06-08T02:08:09.082Z,99.99
2017-06-08T02:08:49.617Z,99.99
2017-06-08T02:09:30.162Z,99.99
2017-06-08T02:10:10.701Z,99.99
2017-06-08T02:10:51.240Z,99.99
2017-06-08T02:11:31.806Z,99.99
2017-06-08T02:12:12.367Z,99.99
2017-06-08T02:12:52.904Z,99.99
2017-06-08T02:13:33.444Z,99.99
2017-06-08T02:14:13.992Z,99.99
2017-06-08T02:14:54.544Z,99.99
2017-06-08T02:15:35.073Z,99.99
2017-06-08T02:16:15.622Z,99.99
2017-06-08T02:16:56.157Z,99.99
2017-06-08T02:17:36.699Z,99.99
2017-06-08T02:18:17.245Z,99.99
2017-06-08T02:18:57.770Z,99.99
2017-06-08T02:19:38.306Z,99.99
2017-06-08T02:20:18.838Z,99.99
2017-06-08T02:20:59.377Z,99.99
2017-06-08T02:21:39.927Z,99.99
2017-06-08T02:22:20.474Z,99.99
2017-06-08T02:23:01.021Z,99.99
2017-06-08T02:23:41.557Z,99.99
2017-06-08T02:24:22.101Z,99.99
2017-06-08T02:25:02.644Z,99.99
2017-06-08T02:25:43.185Z,99.99
2017-06-08T02:26:23.735Z,99.99
2017-06-08T02:27:04.282Z,99.99
2017-06-08T02:27:44.818Z,99.99
2017-06-08T02:28:25.363Z,99.99
2017-06-08T02:29:05.887Z,99.99
2017-06-08T02:29:46.435Z,99.99
2017-06-08T02:30:26.980Z,99.99
2017-06-08T02:31:07.530Z,99.99
2017-06-08T02:31:48.076Z,99.99
2017-06-08T02:32:28.614Z,99.99
2017-06-08T02:33:09.140Z,99.99
2017-06-08T02:33:49.719Z,99.99
2017-06-08T02:34:30.269Z,99.99
2017-06-08T02:35:10.823Z,99.99
2017-06-08T02:35:51.367Z,99.99
2017-06-08T02:36:31.917Z,99.99
2017-06-08T02:37:12.445Z,99.99
2017-06-08T02:37:52.977Z,99.99
2017-06-08T02:38:33.522Z,99.99
2017-06-08T02:39:14.070Z,99.99
2017-06-08T02:39:54.619Z,99.99
2017-06-08T02:40:35.154Z,99.99
2017-06-08T02:41:15.700Z,99.99
2017-06-08T02:41:56.249Z,99.99
2017-06-08T02:42:36.794Z,99.99
2017-06-08T02:43:17.344Z,99.99
2017-06-08T02:43:57.895Z,99.99
2017-06-08T02:44:38.445Z,99.99
2017-06-08T02:45:18.986Z,99.99
2017-06-08T02:45:59.529Z,99.99
2017-06-08T02:46:40.081Z,99.99
2017-06-08T02:47:20.627Z,99.99
2017-06-08T02:48:01.172Z,99.99
2017-06-08T02:48:41.707Z,99.99
2017-06-08T02:49:22.241Z,99.99
2017-06-08T02:50:02.783Z,99.99
2017-06-08T02:50:43.333Z,99.99
2017-06-08T02:51:23.897Z,99.99
2017-06-08T02:52:04.414Z,99.99
2017-06-08T02:52:44.962Z,99.99
2017-06-08T02:53:25.504Z,99.99
2017-06-08T02:54:06.045Z,99.99
2017-06-08T02:54:46.586Z,99.99
2017-06-08T02:55:27.138Z,99.99
2017-06-08T02:56:07.719Z,99.99
2017-06-08T02:56:48.273Z,99.99
2017-06-08T02:57:28.825Z,99.99
2017-06-08T02:58:09.370Z,99.99
2017-06-08T02:58:49.921Z,99.99
2017-06-08T02:59:30.464Z,99.99
2017-06-08T03:00:10.998Z,99.99
2017-06-08T03:00:51.545Z,99.99
2017-06-08T03:01:32.074Z,99.99
2017-06-08T03:02:12.600Z,99.99
2017-06-08T03:02:53.151Z,99.99
2017-06-08T03:03:33.709Z,99.99
2017-06-08T03:04:14.254Z,99.99
2017-06-08T03:04:54.802Z,99.99
2017-06-08T03:05:35.360Z,99.99
2017-06-08T03:06:15.903Z,99.99
2017-06-08T03:06:56.458Z,99.99
2017-06-08T03:07:36.979Z,99.99
2017-06-08T03:08:17.531Z,99.99
2017-06-08T03:08:58.084Z,99.99
2017-06-08T03:09:38.634Z,99.99
2017-06-08T03:10:19.187Z,99.99
2017-06-08T03:10:59.735Z,99.99
2017-06-08T03:11:40.277Z,99.99
2017-06-08T03:12:20.819Z,99.99
2017-06-08T03:13:01.361Z,99.99
2017-06-08T03:13:41.898Z,99.99
2017-06-08T03:14:22.450Z,99.99
2017-06-08T03:15:03.011Z,99.99
2017-06-08T03:15:43.561Z,99.99
2017-06-08T03:16:24.113Z,99.99
2017-06-08T03:17:04.646Z,99.99
2017-06-08T03:17:45.213Z,99.99
2017-06-08T03:18:25.756Z,99.99
2017-06-08T03:19:06.302Z,99.99
2017-06-08T03:19:46.844Z,99.99
2017-06-08T03:20:27.392Z,99.99
2017-06-08T03:21:07.930Z,99.99
2017-06-08T03:21:48.476Z,99.99
2017-06-08T03:22:29.025Z,99.99
2017-06-08T03:23:09.537Z,99.99
2017-06-08T03:23:50.078Z,99.99
2017-06-08T03:24:30.632Z,99.99
2017-06-08T03:25:11.180Z,99.99
2017-06-08T03:25:51.724Z,99.99
2017-06-08T03:26:32.263Z,99.99
2017-06-08T03:27:12.802Z,99.99
2017-06-08T03:27:53.383Z,99.99
2017-06-08T03:28:33.918Z,99.99
2017-06-08T03:29:14.458Z,99.99
2017-06-08T03:29:54.988Z,99.99
2017-06-08T03:30:35.529Z,99.99
2017-06-08T03:31:16.061Z,99.99
2017-06-08T03:31:56.601Z,99.99
2017-06-08T03:32:37.146Z,99.99
2017-06-08T03:33:17.686Z,99.99
2017-06-08T03:33:58.230Z,99.99
2017-06-08T03:34:38.890Z,99.99
2017-06-08T03:35:19.411Z,99.99
2017-06-08T03:35:59.945Z,99.99
2017-06-08T03:36:40.485Z,99.99
2017-06-08T03:37:21.066Z,99.99
2017-06-08T03:38:01.604Z,99.99
2017-06-08T03:38:42.158Z,99.99
2017-06-08T03:39:22.694Z,99.99
2017-06-08T03:40:03.233Z,99.99
2017-06-08T03:40:43.770Z,99.99
2017-06-08T03:41:24.328Z,99.99
2017-06-08T03:42:04.855Z,99.99
2017-06-08T03:42:45.393Z,99.99
2017-06-08T03:43:25.926Z,99.99
2017-06-08T03:44:06.471Z,99.99
2017-06-08T03:44:47.013Z,99.99
2017-06-08T03:45:27.547Z,99.99
2017-06-08T03:46:08.097Z,99.99
2017-06-08T03:46:48.690Z,99.99
2017-06-08T03:47:29.258Z,99.99
2017-06-08T03:48:09.814Z,99.99
2017-06-08T03:48:50.353Z,99.99
2017-06-08T03:49:31.058Z,99.99
2017-06-08T03:50:11.606Z,99.99
2017-06-08T03:50:52.150Z,99.99
2017-06-08T03:51:32.688Z,99.99
2017-06-08T03:52:13.263Z,99.99
2017-06-08T03:52:53.794Z,99.99
2017-06-08T03:53:34.341Z,99.99
2017-06-08T03:54:14.888Z,99.99
2017-06-08T03:54:55.434Z,99.99
2017-06-08T03:55:35.968Z,99.99
2017-06-08T03:56:16.516Z,99.99
2017-06-08T03:56:57.062Z,99.99
2017-06-08T03:57:37.605Z,99.99
2017-06-08T03:58:18.144Z,99.99
2017-06-08T03:58:58.935Z,99.99
2017-06-08T03:59:39.494Z,99.99
2017-06-08T04:00:20.376Z,99.99
2017-06-08T04:01:01.013Z,99.99
2017-06-08T04:01:41.564Z,99.99
2017-06-08T04:02:22.111Z,99.99
2017-06-08T04:03:02.655Z,99.99
2017-06-08T04:03:43.215Z,99.99
2017-06-08T04:04:23.757Z,99.99
2017-06-08T04:05:04.305Z,99.99
2017-06-08T04:05:44.858Z,99.99
2017-06-08T04:06:25.399Z,99.99
2017-06-08T04:07:05.943Z,99.99
2017-06-08T04:07:46.489Z,99.99
2017-06-08T04:08:27.022Z,99.99
2017-06-08T04:09:07.555Z,99.99
2017-06-08T04:09:48.094Z,99.99
2017-06-08T04:10:28.638Z,99.99
2017-06-08T04:11:09.178Z,99.99
2017-06-08T04:11:49.717Z,99.99
2017-06-08T04:12:30.263Z,99.99
2017-06-08T04:13:10.812Z,99.99
2017-06-08T04:13:51.347Z,99.99
2017-06-08T04:14:31.895Z,99.99
2017-06-08T04:15:12.430Z,99.99
2017-06-08T04:15:52.976Z,99.99
2017-06-08T04:16:33.510Z,99.99
2017-06-08T04:17:14.053Z,99.99
2017-06-08T04:17:54.588Z,99.99
2017-06-08T04:18:35.131Z,99.99
2017-06-08T04:19:15.665Z,99.99
2017-06-08T04:19:56.214Z,98.47
2017-06-08T04:20:36.758Z,98.66
2017-06-08T04:21:17.286Z,97.32
2017-06-08T04:21:57.833Z,95.89
2017-06-08T04:22:38.365Z,95.79
2017-06-08T04:23:18.910Z,94.46
2017-06-08T04:23:59.440Z,93.22
2017-06-08T04:24:40.021Z,92.83
2017-06-08T04:25:20.531Z,91.88
2017-06-08T04:26:01.212Z,91.02
2017-06-08T04:26:41.763Z,90.17
2017-06-08T04:27:22.404Z,89.31
2017-06-08T04:28:02.947Z,88.92
2017-06-08T04:28:43.484Z,87.49
2017-06-08T04:29:24.027Z,86.92
2017-06-08T04:30:04.575Z,86.35
2017-06-08T04:30:45.121Z,85.87
2017-06-08T04:31:25.657Z,85.01
2017-06-08T04:32:06.199Z,84.25
2017-06-08T04:32:46.733Z,83.77
2017-06-08T04:33:27.284Z,82.82
2017-06-08T04:34:07.826Z,82.34
2017-06-08T04:34:48.386Z,81.67
2017-06-08T04:35:28.927Z,81.1
2017-06-08T04:36:09.470Z,81.67
2017-06-08T04:36:50.006Z,80.91
2017-06-08T04:37:30.552Z,80.62
2017-06-08T04:38:11.096Z,80.53
2017-06-08T04:38:51.630Z,80.81
2017-06-08T04:39:32.178Z,79.67
2017-06-08T04:40:12.717Z,79.67
2017-06-08T04:40:53.275Z,79.19
2017-06-08T04:41:33.812Z,78.81
2017-06-08T04:42:14.358Z,78.43
2017-06-08T04:42:54.894Z,78.72
2017-06-08T04:43:35.438Z,77.76
2017-06-08T04:44:15.985Z,77.86
2017-06-08T04:44:56.523Z,77.38
2017-06-08T04:45:37.071Z,77
2017-06-08T04:46:17.609Z,76.9
2017-06-08T04:46:58.155Z,76.42
2017-06-08T04:47:38.689Z,76.52
2017-06-08T04:48:19.301Z,76.23
2017-06-08T04:48:59.833Z,75.95
2017-06-08T04:49:40.370Z,75.85
2017-06-08T04:50:20.922Z,75.95
2017-06-08T04:51:01.471Z,75.66
2017-06-08T04:51:42.014Z,75.28
2017-06-08T04:52:22.554Z,74.61
2017-06-08T04:53:03.089Z,75.18
2017-06-08T04:53:43.624Z,74.99
2017-06-08T04:54:24.155Z,74.99
2017-06-08T04:55:04.707Z,74.37
2017-06-08T04:55:45.249Z,74.17
2017-06-08T04:56:25.799Z,74.37
2017-06-08T04:57:06.356Z,74.17
2017-06-08T04:57:46.882Z,74.27
2017-06-08T04:58:27.421Z,74.08
2017-06-08T04:59:07.969Z,73.69
2017-06-08T04:59:48.509Z,73.32
2017-06-08T05:00:29.060Z,73.88
2017-06-08T05:01:09.603Z,73.6
2017-06-08T05:01:50.143Z,74.27
2017-06-08T05:02:30.684Z,74.27
2017-06-08T05:03:11.224Z,74.37
2017-06-08T05:03:51.757Z,75.03
2017-06-08T05:04:32.310Z,75.22
2017-06-08T05:05:12.858Z,74.65
2017-06-08T05:05:53.396Z,74.93
2017-06-08T05:06:33.943Z,75.6
2017-06-08T05:07:14.487Z,75.89
2017-06-08T05:07:55.039Z,76.37
2017-06-08T05:08:35.582Z,76.46
2017-06-08T05:09:16.132Z,76.37
2017-06-08T05:09:56.681Z,77.61
2017-06-08T05:10:37.224Z,79.9
2017-06-08T05:11:17.800Z,80.28
2017-06-08T05:11:58.343Z,82.57
2017-06-08T05:12:38.878Z,82.09
2017-06-08T05:13:19.414Z,82.19
2017-06-08T05:13:59.950Z,82.19
2017-06-08T05:14:40.473Z,82.76
2017-06-08T05:15:21.018Z,82.67
2017-06-08T05:16:01.584Z,83.24
2017-06-08T05:16:42.134Z,84.67
2017-06-08T05:17:22.672Z,84.58
2017-06-08T05:18:03.224Z,86.68
2017-06-08T05:18:43.755Z,87.06
2017-06-08T05:19:24.302Z,87.06
2017-06-08T05:20:04.853Z,87.73
2017-06-08T05:20:45.386Z,87.82
2017-06-08T05:21:25.938Z,88.11
2017-06-08T05:22:06.506Z,89.35
2017-06-08T05:22:47.039Z,89.45
2017-06-08T05:23:27.598Z,89.73
2017-06-08T05:24:08.133Z,90.4
2017-06-08T05:24:48.676Z,90.5
2017-06-08T05:25:29.212Z,91.64
2017-06-08T05:26:09.740Z,91.64
2017-06-08T05:26:50.281Z,93.55
2017-06-08T05:27:30.831Z,93.93
2017-06-08T05:28:11.365Z,93.74
2017-06-08T05:28:51.908Z,94.41
2017-06-08T05:29:32.464Z,94.6
2017-06-08T05:30:13.010Z,96.32
2017-06-08T05:30:53.563Z,96.03
2017-06-08T05:31:34.118Z,97.37
2017-06-08T05:32:14.667Z,97.66
2017-06-08T05:32:55.220Z,97.71
2017-06-08T05:33:35.766Z,97.94
2017-06-08T05:34:16.317Z,97.94
2017-06-08T05:34:56.867Z,98.32
2017-06-08T05:35:37.420Z,98.37
2017-06-08T05:36:18.026Z,98.47
2017-06-08T05:36:58.575Z,98.47
2017-06-08T05:37:39.121Z,98.18
2017-06-08T05:38:19.694Z,99.71
2017-06-08T05:39:00.235Z,98.75
2017-06-08T05:39:40.797Z,99.23
2017-06-08T05:40:21.330Z,99.33
2017-06-08T05:41:01.903Z,99.43
2017-06-08T05:41:42.503Z,99.71
2017-06-08T05:42:23.132Z,99.71
2017-06-08T05:43:03.682Z,99.99
2017-06-08T05:43:44.234Z,99.9
2017-06-08T05:44:24.789Z,99.04
2017-06-08T05:45:05.337Z,99.99
2017-06-08T05:45:45.888Z,99.99
2017-06-08T05:46:26.431Z,99.99
2017-06-08T05:47:07.058Z,99.99
2017-06-08T05:47:47.540Z,99.99
2017-06-08T05:48:28.091Z,99.99
2017-06-08T05:49:08.645Z,99.99
2017-06-08T05:49:49.194Z,99.99
2017-06-08T05:50:29.748Z,99.99
2017-06-08T05:51:10.311Z,99.99
2017-06-08T05:51:50.853Z,99.99
2017-06-08T05:52:31.524Z,99.99
2017-06-08T05:53:12.385Z,99.99
2017-06-08T05:53:52.934Z,99.99
2017-06-08T05:54:33.483Z,99.99
2017-06-08T05:55:14.015Z,99.99
2017-06-08T05:55:54.566Z,99.99
2017-06-08T05:56:35.114Z,99.99
2017-06-08T05:57:15.660Z,99.99
2017-06-08T05:57:56.201Z,99.99
2017-06-08T05:58:36.752Z,99.99
2017-06-08T05:59:17.298Z,99.99
2017-06-08T05:59:57.847Z,99.99
2017-06-08T06:00:38.395Z,99.99
2017-06-08T06:01:18.947Z,99.99
2017-06-08T06:01:59.489Z,99.99
2017-06-08T06:02:40.105Z,99.99
2017-06-08T06:03:20.645Z,99.99
2017-06-08T06:04:01.309Z,99.99
2017-06-08T06:04:41.866Z,99.99
2017-06-08T06:05:22.409Z,99.99
2017-06-08T06:06:02.949Z,99.99
2017-06-08T06:06:43.490Z,99.99
2017-06-08T06:07:24.030Z,99.99
2017-06-08T06:08:04.630Z,99.99
2017-06-08T06:08:45.182Z,99.99
2017-06-08T06:09:25.713Z,99.99
2017-06-08T06:10:06.255Z,99.99
2017-06-08T06:10:46.805Z,99.99
2017-06-08T06:11:27.342Z,99.99
2017-06-08T06:12:07.907Z,99.99
2017-06-08T06:12:48.453Z,99.99
2017-06-08T06:13:28.985Z,99.99
2017-06-08T06:14:09.570Z,99.99
2017-06-08T06:14:50.093Z,99.99
2017-06-08T06:15:30.670Z,99.99
2017-06-08T06:16:11.195Z,99.99
2017-06-08T06:16:51.764Z,99.99
2017-06-08T06:17:32.294Z,99.99
2017-06-08T06:18:12.843Z,99.99
2017-06-08T06:18:53.399Z,99.99
2017-06-08T06:19:33.946Z,99.99
2017-06-08T06:20:14.497Z,99.99
2017-06-08T06:20:55.046Z,99.99
2017-06-08T06:21:35.603Z,99.99
2017-06-08T06:22:16.152Z,99.99
2017-06-08T06:22:56.702Z,99.99
2017-06-08T06:23:37.256Z,99.99
2017-06-08T06:24:17.806Z,99.99
2017-06-08T06:24:58.354Z,99.99
2017-06-08T06:25:38.904Z,99.99
2017-06-08T06:26:19.435Z,99.99
2017-06-08T06:26:59.981Z,99.99
2017-06-08T06:27:40.544Z,99.99
2017-06-08T06:28:21.108Z,99.99
2017-06-08T06:29:01.658Z,99.99
2017-06-08T06:29:42.207Z,99.99
2017-06-08T06:30:22.754Z,99.99
2017-06-08T06:31:03.309Z,99.99
2017-06-08T06:31:43.861Z,99.99
2017-06-08T06:32:24.412Z,99.99
2017-06-08T06:33:04.962Z,99.99
2017-06-08T06:33:45.513Z,99.99
2017-06-08T06:34:26.064Z,99.99
2017-06-08T06:35:06.617Z,99.99
2017-06-08T06:35:47.218Z,99.99
2017-06-08T06:36:27.802Z,99.99
2017-06-08T06:37:08.348Z,99.99
2017-06-08T06:37:48.909Z,99.99
2017-06-08T06:38:29.453Z,99.99
2017-06-08T06:39:10.002Z,99.99
2017-06-08T06:39:50.549Z,99.99
2017-06-08T06:40:31.100Z,99.99
2017-06-08T06:41:11.659Z,99.99
2017-06-08T06:41:52.203Z,99.99
2017-06-08T06:42:32.754Z,99.99
2017-06-08T06:43:13.304Z,99.99
2017-06-08T06:43:53.901Z,99.99
2017-06-08T06:44:34.461Z,99.99
2017-06-08T06:45:15.167Z,99.99
2017-06-08T06:45:55.707Z,99.99
2017-06-08T06:46:36.267Z,99.99
2017-06-08T06:47:16.810Z,99.99
2017-06-08T06:47:57.365Z,99.99
2017-06-08T06:48:37.916Z,99.99
2017-06-08T06:49:18.473Z,99.99
2017-06-08T06:49:59.026Z,99.99
2017-06-08T06:50:39.571Z,99.99
2017-06-08T06:51:20.115Z,99.99
2017-06-08T06:52:00.649Z,99.99
2017-06-08T06:52:41.192Z,99.99
2017-06-08T06:53:21.730Z,99.99
2017-06-08T06:54:02.300Z,99.99
2017-06-08T06:54:42.849Z,99.99
2017-06-08T06:55:23.378Z,99.99
2017-06-08T06:56:03.922Z,99.99
2017-06-08T06:56:44.465Z,99.99
2017-06-08T06:57:25.002Z,99.99
2017-06-08T06:58:05.551Z,99.99
2017-06-08T06:58:46.096Z,99.99
2017-06-08T06:59:26.648Z,99.99
2017-06-08T07:00:07.203Z,99.99
2017-06-08T07:00:47.744Z,99.99
2017-06-08T07:01:28.300Z,99.99
2017-06-08T07:02:08.843Z,99.99
2017-06-08T07:02:49.384Z,99.99
2017-06-08T07:03:29.935Z,99.99
2017-06-08T07:04:10.485Z,99.99
2017-06-08T07:04:51.019Z,99.99
2017-06-08T07:05:31.598Z,99.99
2017-06-08T07:06:12.111Z,99.99
2017-06-08T07:06:52.643Z,99.99
2017-06-08T07:07:33.188Z,99.99
2017-06-08T07:08:13.736Z,99.99
2017-06-08T07:08:54.278Z,99.99
2017-06-08T07:09:34.821Z,99.99
2017-06-08T07:10:15.371Z,99.99
2017-06-08T07:10:55.913Z,99.99
2017-06-08T07:11:36.463Z,99.99
2017-06-08T07:12:17.012Z,99.99
2017-06-08T07:12:57.557Z,99.99
2017-06-08T07:13:38.095Z,99.99
2017-06-08T07:14:18.639Z,99.99
2017-06-08T07:14:59.193Z,99.99
2017-06-08T07:15:39.748Z,99.99
2017-06-08T07:16:20.293Z,99.99
2017-06-08T07:17:00.842Z,99.99
2017-06-08T07:17:41.393Z,99.99
2017-06-08T07:18:21.943Z,99.99
2017-06-08T07:19:02.472Z,99.99
2017-06-08T07:19:43.013Z,99.99
2017-06-08T07:20:23.555Z,99.99
2017-06-08T07:21:04.109Z,99.99
2017-06-08T07:21:44.652Z,99.99
2017-06-08T07:22:25.201Z,99.99
2017-06-08T07:23:05.751Z,99.99
2017-06-08T07:23:46.281Z,99.99
2017-06-08T07:24:26.829Z,99.99
2017-06-08T07:25:07.376Z,99.99
2017-06-08T07:25:47.925Z,99.99
2017-06-08T07:26:28.476Z,99.99
2017-06-08T07:27:09.029Z,99.99
2017-06-08T07:27:49.566Z,99.99
2017-06-08T07:28:30.116Z,99.99
2017-06-08T07:29:10.664Z,99.99
2017-06-08T07:29:51.201Z,99.99
2017-06-08T07:30:31.746Z,99.99
2017-06-08T07:31:12.325Z,99.99
2017-06-08T07:31:52.880Z,99.99
2017-06-08T07:32:33.422Z,99.99
2017-06-08T07:33:13.983Z,99.99
2017-06-08T07:33:54.522Z,99.99
2017-06-08T07:34:35.130Z,99.99
2017-06-08T07:35:15.677Z,99.99
2017-06-08T07:35:56.236Z,99.99
2017-06-08T07:36:36.773Z,99.99
2017-06-08T07:37:17.334Z,99.99
2017-06-08T07:37:57.897Z,99.99
2017-06-08T07:38:38.431Z,99.99
2017-06-08T07:39:18.976Z,99.99
2017-06-08T07:39:59.545Z,99.99
2017-06-08T07:40:40.084Z,99.99
2017-06-08T07:41:20.628Z,99.99
2017-06-08T07:42:01.180Z,99.99
2017-06-08T07:42:41.737Z,99.99
2017-06-08T07:43:22.282Z,99.99
2017-06-08T07:44:02.818Z,99.99
2017-06-08T07:44:43.363Z,99.99
2017-06-08T07:45:23.910Z,99.99
2017-06-08T07:46:04.452Z,99.99
2017-06-08T07:46:45.014Z,99.99
2017-06-08T07:47:25.562Z,99.99
2017-06-08T07:48:06.104Z,99.99
2017-06-08T07:48:46.653Z,99.99
2017-06-08T07:49:27.199Z,99.99
2017-06-08T07:50:07.763Z,99.99
2017-06-08T07:50:48.295Z,99.99
2017-06-08T07:51:28.846Z,99.99
2017-06-08T07:52:09.396Z,99.99
2017-06-08T07:52:49.941Z,99.99
2017-06-08T07:53:30.483Z,99.99
2017-06-08T07:54:11.034Z,99.99
2017-06-08T07:54:51.565Z,99.99
2017-06-08T07:55:32.102Z,99.99
2017-06-08T07:56:12.655Z,99.99
2017-06-08T07:56:53.200Z,99.99
2017-06-08T07:57:33.734Z,99.99
2017-06-08T07:58:14.273Z,99.99
2017-06-08T07:58:54.827Z,99.99
2017-06-08T07:59:35.377Z,99.99
2017-06-08T08:00:15.932Z,99.99
2017-06-08T08:00:56.476Z,99.99
2017-06-08T08:01:37.016Z,99.99
2017-06-08T08:02:17.577Z,99.99
2017-06-08T08:02:58.119Z,99.99
2017-06-08T08:03:38.664Z,99.99
2017-06-08T08:04:19.218Z,99.99
2017-06-08T08:04:59.761Z,99.99
2017-06-08T08:05:40.312Z,99.99
2017-06-08T08:06:20.869Z,99.99
2017-06-08T08:07:01.418Z,99.99
2017-06-08T08:07:41.964Z,99.99
2017-06-08T08:08:22.512Z,99.99
2017-06-08T08:09:03.061Z,99.99
2017-06-08T08:09:43.612Z,99.99
2017-06-08T08:10:24.163Z,99.99
2017-06-08T08:11:04.727Z,99.99
2017-06-08T08:11:45.283Z,99.99
2017-06-08T08:12:25.828Z,99.99
2017-06-08T08:13:06.373Z,99.99
2017-06-08T08:13:46.918Z,99.99
2017-06-08T08:14:27.460Z,99.99
2017-06-08T08:15:08.018Z,99.99
2017-06-08T08:15:48.562Z,99.99
2017-06-08T08:16:29.118Z,99.99
2017-06-08T08:17:09.671Z,99.99
2017-06-08T08:17:50.215Z,99.99
2017-06-08T08:18:30.769Z,99.99
2017-06-08T08:19:11.332Z,99.99
2017-06-08T08:19:51.881Z,99.99
2017-06-08T08:20:32.479Z,99.99
2017-06-08T08:21:13.047Z,99.99
2017-06-08T08:21:53.589Z,99.99
2017-06-08T08:22:34.138Z,99.99
2017-06-08T08:23:14.694Z,99.99
2017-06-08T08:23:55.240Z,99.99
2017-06-08T08:24:35.786Z,99.99
2017-06-08T08:25:16.333Z,99.99
2017-06-08T08:25:56.890Z,99.99
2017-06-08T08:26:37.443Z,99.99
2017-06-08T08:27:17.991Z,99.99
2017-06-08T08:27:58.536Z,99.99
2017-06-08T08:28:39.092Z,99.99
2017-06-08T08:29:19.638Z,99.99
2017-06-08T08:30:00.198Z,99.99
2017-06-08T08:30:40.741Z,99.99
2017-06-08T08:31:21.294Z,99.99
2017-06-08T08:32:01.840Z,99.99
2017-06-08T08:32:42.377Z,99.99
2017-06-08T08:33:22.922Z,99.99
2017-06-08T08:34:03.496Z,99.99
2017-06-08T08:34:44.033Z,99.99
2017-06-08T08:35:24.571Z,99.99
2017-06-08T08:36:05.124Z,99.99
2017-06-08T08:36:45.674Z,99.99
2017-06-08T08:37:26.223Z,99.99
2017-06-08T08:38:06.776Z,98.68
2017-06-08T08:38:47.321Z,96.94
2017-06-08T08:39:27.878Z,96.46
2017-06-08T08:40:08.453Z,96.7
2017-06-08T08:40:49.043Z,97.38
2017-06-08T08:41:29.556Z,97.57
2017-06-08T08:42:10.105Z,97.52
2017-06-08T08:42:50.655Z,98.29
2017-06-08T08:43:31.207Z,99.26
2017-06-08T08:44:11.759Z,98.96
2017-06-08T08:44:52.330Z,98.63
2017-06-08T08:45:32.859Z,97.96
2017-06-08T08:46:13.410Z,96.51